createdAt,value
2022-11-10T00:02:38.712Z,1.30
2022-11-10T00:05:25.310Z,1.70
2022-11-10T00:08:12.657Z,1.30
2022-11-10T00:10:59.093Z,1.35
2022-11-10T00:14:07.439Z,1.40
2022-11-10T00:17:04.534Z,1.75
2022-11-10T00:19:50.790Z,1.43
2022-11-10T00:22:39.217Z,1.50
2022-11-10T00:25:26.639Z,1.25
2022-11-10T00:28:13.231Z,1.20
2022-11-10T00:31:06.087Z,1.35
2022-11-10T00:33:52.067Z,1.20
2022-11-10T00:36:38.512Z,1.23
2022-11-10T00:39:24.429Z,1.40
2022-11-10T00:42:10.395Z,1.13
2022-11-10T00:44:56.955Z,1.10
2022-11-10T00:47:45.247Z,1.23
2022-11-10T00:50:31.207Z,1.05
2022-11-10T00:53:17.764Z,1.30
2022-11-10T00:56:04.232Z,1.23
2022-11-10T00:58:50.812Z,0.85
2022-11-10T01:01:37.056Z,1.13
2022-11-10T01:04:23.007Z,0.90
2022-11-10T01:07:09.217Z,0.93
2022-11-10T01:09:55.225Z,0.90
2022-11-10T01:12:41.218Z,1.13
2022-11-10T01:15:28.269Z,0.70
2022-11-10T01:18:14.402Z,1.27
2022-11-10T01:21:01.128Z,1.38
2022-11-10T01:23:47.651Z,1.08
2022-11-10T01:26:33.482Z,1.30
2022-11-10T01:29:19.879Z,1.13
2022-11-10T01:32:05.819Z,1.55
2022-11-10T01:34:52.132Z,1.30
2022-11-10T01:37:38.843Z,1.83
2022-11-10T01:40:24.959Z,1.70
2022-11-10T01:43:12.462Z,1.10
2022-11-10T01:46:05.495Z,1.25
2022-11-10T01:48:57.195Z,1.92
2022-11-10T01:51:55.133Z,1.75
2022-11-10T01:54:44.582Z,1.20
2022-11-10T01:57:31.038Z,1.17
2022-11-10T02:00:18.103Z,1.60
2022-11-10T02:03:13.621Z,1.40
2022-11-10T02:06:00.582Z,1.70
2022-11-10T02:08:47.688Z,1.45
2022-11-10T02:11:34.724Z,1.20
2022-11-10T02:14:21.600Z,1.30
2022-11-10T02:17:08.018Z,1.17
2022-11-10T02:19:53.942Z,1.83
2022-11-10T02:22:40.345Z,1.25
2022-11-10T02:25:30.444Z,1.30
2022-11-10T02:28:16.661Z,1.58
2022-11-10T02:31:03.640Z,1.13
2022-11-10T02:33:49.870Z,1.05
2022-11-10T02:36:35.623Z,1.70
2022-11-10T02:39:21.842Z,1.43
2022-11-10T02:42:10.708Z,1.50
2022-11-10T02:44:57.884Z,0.85
2022-11-10T02:47:44.012Z,1.35
2022-11-10T02:50:30.268Z,1.50
2022-11-10T02:53:16.077Z,1.20
2022-11-10T02:56:02.612Z,1.30
2022-11-10T02:58:48.715Z,1.25
2022-11-10T03:01:35.070Z,1.40
2022-11-10T03:04:21.683Z,1.23
2022-11-10T03:07:07.702Z,1.67
2022-11-10T03:09:54.045Z,1.63
2022-11-10T03:12:40.062Z,1.35
2022-11-10T03:15:26.689Z,1.60
2022-11-10T03:18:13.075Z,1.20
2022-11-10T03:20:59.060Z,1.23
2022-11-10T03:23:45.310Z,1.70
2022-11-10T03:26:31.505Z,1.27
2022-11-10T03:29:17.799Z,1.13
2022-11-10T03:32:03.711Z,0.98
2022-11-10T03:34:50.099Z,1.20
2022-11-10T03:37:35.871Z,0.90
2022-11-10T03:40:22.553Z,1.63
2022-11-10T03:43:09.182Z,1.40
2022-11-10T03:45:55.499Z,1.10
2022-11-10T03:48:41.456Z,1.20
2022-11-10T03:51:27.945Z,1.33
2022-11-10T03:54:14.194Z,2.13
2022-11-10T03:57:00.643Z,1.02
2022-11-10T03:59:46.590Z,1.23
2022-11-10T04:02:32.819Z,1.47
2022-11-10T04:05:37.380Z,1.98
2022-11-10T04:08:41.910Z,1.25
2022-11-10T04:11:48.013Z,1.73
2022-11-10T04:14:52.573Z,1.40
2022-11-10T04:17:38.380Z,0.97
2022-11-10T04:20:24.415Z,1.25
2022-11-10T04:23:28.962Z,1.38
2022-11-10T04:26:30.766Z,1.15
2022-11-10T04:29:19.201Z,1.40
2022-11-10T04:32:05.756Z,1.27
2022-11-10T04:34:53.024Z,1.05
2022-11-10T04:37:39.136Z,1.10
2022-11-10T04:40:25.303Z,1.52
2022-11-10T04:43:11.275Z,1.38
2022-11-10T04:45:57.719Z,1.47
2022-11-10T04:48:43.569Z,1.13
2022-11-10T04:51:39.279Z,1.15
2022-11-10T04:54:25.305Z,1.08
2022-11-10T04:57:11.226Z,1.13
2022-11-10T04:59:56.962Z,1.17
2022-11-10T05:02:42.770Z,1.65
2022-11-10T05:05:29.314Z,1.67
2022-11-10T05:08:15.785Z,0.90
2022-11-10T05:11:02.036Z,0.85
2022-11-10T05:13:48.213Z,1.07
2022-11-10T05:16:34.538Z,1.30
2022-11-10T05:19:20.735Z,1.50
2022-11-10T05:22:07.768Z,1.20
2022-11-10T05:24:53.822Z,1.30
2022-11-10T05:27:39.944Z,1.10
2022-11-10T05:30:26.051Z,1.48
2022-11-10T05:33:12.443Z,1.50
2022-11-10T05:35:58.977Z,1.30
2022-11-10T05:38:45.185Z,1.35
2022-11-10T05:41:31.108Z,1.53
2022-11-10T05:44:17.549Z,1.33
2022-11-10T05:47:03.633Z,1.20
2022-11-10T05:49:49.816Z,0.98
2022-11-10T05:52:36.261Z,1.30
2022-11-10T05:55:25.668Z,1.23
2022-11-10T05:58:11.675Z,1.63
2022-11-10T06:00:57.458Z,1.20
2022-11-10T06:03:43.339Z,1.48
2022-11-10T06:06:29.570Z,1.38
2022-11-10T06:09:15.885Z,1.50
2022-11-10T06:12:03.509Z,0.70
2022-11-10T06:14:49.839Z,0.98
2022-11-10T06:17:38.021Z,1.20
2022-11-10T06:20:24.954Z,1.00
2022-11-10T06:23:12.803Z,0.97
2022-11-10T06:25:58.859Z,1.00
2022-11-10T06:28:45.360Z,1.10
2022-11-10T06:31:31.304Z,1.02
2022-11-10T06:34:17.420Z,0.90
2022-11-10T06:37:04.043Z,1.00
2022-11-10T06:39:50.091Z,1.30
2022-11-10T06:42:36.014Z,1.02
2022-11-10T06:45:23.064Z,1.00
2022-11-10T06:48:14.171Z,0.90
2022-11-10T06:51:01.897Z,0.87
2022-11-10T06:53:48.090Z,0.70
2022-11-10T06:56:35.069Z,1.17
2022-11-10T06:59:21.396Z,1.10
2022-11-10T07:02:15.831Z,1.30
2022-11-10T07:05:02.134Z,0.70
2022-11-10T07:07:48.789Z,1.58
2022-11-10T07:10:35.862Z,0.98
2022-11-10T07:13:22.947Z,1.20
2022-11-10T07:16:10.708Z,0.82
2022-11-10T07:18:56.869Z,1.13
2022-11-10T07:21:42.994Z,1.20
2022-11-10T07:24:30.622Z,1.20
2022-11-10T07:27:16.475Z,0.82
2022-11-10T07:30:04.004Z,0.90
2022-11-10T07:33:13.192Z,1.00
2022-11-10T07:36:03.450Z,1.08
2022-11-10T07:38:49.888Z,1.08
2022-11-10T07:41:36.000Z,1.40
2022-11-10T07:44:22.199Z,1.02
2022-11-10T07:47:08.580Z,1.17
2022-11-10T07:49:54.439Z,1.02
2022-11-10T07:52:41.030Z,1.30
2022-11-10T07:55:26.925Z,1.00
2022-11-10T07:58:15.658Z,0.80
2022-11-10T08:01:02.069Z,0.80
2022-11-10T08:03:48.474Z,0.90
2022-11-10T08:06:36.423Z,1.17
2022-11-10T08:09:22.851Z,1.02
2022-11-10T08:12:09.413Z,1.23
2022-11-10T08:14:55.346Z,1.20
2022-11-10T08:17:41.606Z,0.80
2022-11-10T08:20:28.224Z,0.80
2022-11-10T08:23:14.658Z,1.00
2022-11-10T08:26:01.685Z,1.30
2022-11-10T08:28:47.975Z,1.00
2022-11-10T08:31:34.451Z,0.70
2022-11-10T08:34:21.767Z,0.85
2022-11-10T08:37:07.945Z,0.95
2022-11-10T08:39:54.364Z,0.85
2022-11-10T08:42:40.847Z,0.90
2022-11-10T08:45:27.242Z,0.70
2022-11-10T08:48:16.234Z,0.90
2022-11-10T08:51:02.519Z,0.82
2022-11-10T08:53:48.330Z,0.85
2022-11-10T08:56:34.395Z,0.87
2022-11-10T08:59:20.766Z,0.73
2022-11-10T09:02:10.285Z,0.80
2022-11-10T09:04:56.617Z,1.00
2022-11-10T09:07:46.908Z,0.90
2022-11-10T09:10:35.597Z,0.83
2022-11-10T09:13:27.895Z,0.75
2022-11-10T09:16:15.684Z,0.70
2022-11-10T09:19:01.920Z,0.57
2022-11-10T09:21:48.357Z,0.40
2022-11-10T09:24:34.455Z,0.87
2022-11-10T09:27:21.081Z,0.55
2022-11-10T09:30:11.764Z,0.70
2022-11-10T09:33:01.048Z,0.80
2022-11-10T09:35:47.754Z,0.68
2022-11-10T09:38:35.228Z,0.60
2022-11-10T09:41:21.899Z,0.63
2022-11-10T09:44:23.870Z,0.50
2022-11-10T09:47:42.220Z,0.70
2022-11-10T09:50:54.000Z,0.60
2022-11-10T09:53:55.140Z,0.90
2022-11-10T09:56:41.831Z,0.93
2022-11-10T09:59:30.733Z,0.55
2022-11-10T10:02:35.087Z,0.52
2022-11-10T10:05:47.729Z,0.60
2022-11-10T10:08:49.786Z,0.70
2022-11-10T10:11:50.112Z,0.95
2022-11-10T10:15:03.067Z,0.80
2022-11-10T10:17:56.292Z,0.60
2022-11-10T10:21:27.792Z,0.60
2022-11-10T10:24:22.113Z,0.50
2022-11-10T10:27:18.270Z,0.70
2022-11-10T10:30:13.250Z,0.57
2022-11-10T10:33:15.465Z,0.80
2022-11-10T10:36:16.045Z,0.93
2022-11-10T10:39:10.859Z,0.90
2022-11-10T10:41:57.828Z,0.70
2022-11-10T10:45:31.150Z,0.90
2022-11-10T10:48:31.494Z,0.80
2022-11-10T10:51:44.146Z,0.88
2022-11-10T10:54:35.358Z,0.90
2022-11-10T10:57:31.719Z,0.75
2022-11-10T11:00:17.969Z,1.42
2022-11-10T11:03:07.215Z,0.93
2022-11-10T11:06:18.877Z,0.90
2022-11-10T11:09:23.720Z,0.80
2022-11-10T11:12:20.442Z,1.10
2022-11-10T11:15:26.851Z,0.98
2022-11-10T11:18:15.646Z,1.30
2022-11-10T11:21:33.614Z,1.10
2022-11-10T11:24:40.732Z,0.90
2022-11-10T11:27:49.179Z,1.00
2022-11-10T11:31:02.117Z,1.25
2022-11-10T11:34:05.431Z,1.00
2022-11-10T11:37:08.428Z,0.75
2022-11-10T11:40:25.393Z,0.67
2022-11-10T11:43:45.151Z,0.90
2022-11-10T11:46:39.054Z,0.65
2022-11-10T11:50:02.852Z,0.80
2022-11-10T11:53:18.398Z,1.10
2022-11-10T11:56:13.367Z,0.90
2022-11-10T11:59:31.606Z,1.17
2022-11-10T12:02:39.225Z,0.80
2022-11-10T12:05:36.723Z,0.80
2022-11-10T12:08:57.267Z,0.82
2022-11-10T12:12:10.871Z,0.80
2022-11-10T12:15:34.447Z,0.55
2022-11-10T12:18:43.582Z,0.70
2022-11-10T12:21:57.824Z,0.52
2022-11-10T12:24:46.665Z,0.60
2022-11-10T12:27:40.084Z,0.43
2022-11-10T12:30:26.903Z,0.88
2022-11-10T12:33:41.122Z,0.65
2022-11-10T12:36:30.914Z,1.13
2022-11-10T12:39:25.154Z,0.50
2022-11-10T12:42:26.337Z,0.60
2022-11-10T12:45:43.045Z,0.63
2022-11-10T12:48:54.561Z,0.70
2022-11-10T12:52:05.428Z,0.70
2022-11-10T12:54:51.824Z,0.50
2022-11-10T12:57:38.491Z,0.70
2022-11-10T13:00:35.410Z,1.00
2022-11-10T13:03:27.619Z,0.70
2022-11-10T13:06:37.272Z,0.95
2022-11-10T13:09:28.044Z,0.93
2022-11-10T13:12:18.675Z,0.80
2022-11-10T13:15:36.645Z,1.17
2022-11-10T13:18:31.758Z,1.17
2022-11-10T13:21:18.043Z,0.73
2022-11-10T13:24:04.495Z,0.70
2022-11-10T13:27:04.457Z,0.70
2022-11-10T13:29:50.733Z,0.80
2022-11-10T13:32:36.724Z,0.60
2022-11-10T13:35:29.124Z,0.90
2022-11-10T13:38:33.216Z,0.77
2022-11-10T13:41:25.413Z,0.77
2022-11-10T13:44:39.942Z,1.00
2022-11-10T13:47:54.431Z,0.50
2022-11-10T13:51:07.705Z,0.50
2022-11-10T13:54:31.774Z,0.50
2022-11-10T13:57:17.981Z,0.80
2022-11-10T14:00:19.256Z,1.00
2022-11-10T14:03:28.518Z,0.82
2022-11-10T14:06:20.009Z,0.70
2022-11-10T14:09:41.245Z,0.88
2022-11-10T14:12:45.359Z,0.83
2022-11-10T14:15:45.126Z,0.73
2022-11-10T14:18:45.652Z,1.13
2022-11-10T14:22:03.634Z,0.60
2022-11-10T14:24:54.153Z,0.70
2022-11-10T14:27:41.398Z,0.90
2022-11-10T14:30:30.067Z,0.82
2022-11-10T14:33:16.505Z,1.10
2022-11-10T14:36:09.151Z,0.85
2022-11-10T14:38:55.459Z,0.68
2022-11-10T14:41:49.413Z,0.67
2022-11-10T14:44:36.505Z,0.68
2022-11-10T14:47:25.682Z,1.08
2022-11-10T14:50:14.531Z,0.80
2022-11-10T14:53:03.088Z,1.10
2022-11-10T14:55:54.965Z,1.30
2022-11-10T14:58:43.418Z,1.20
2022-11-10T15:01:34.004Z,1.02
2022-11-10T15:04:25.898Z,0.90
2022-11-10T15:07:12.757Z,0.85
2022-11-10T15:10:17.568Z,1.27
2022-11-10T15:13:05.685Z,1.13
2022-11-10T15:15:53.725Z,1.50
2022-11-10T15:18:39.891Z,1.20
2022-11-10T15:21:34.151Z,1.52
2022-11-10T15:24:23.553Z,1.23
2022-11-10T15:27:31.482Z,1.55
2022-11-10T15:30:23.562Z,1.08
2022-11-10T15:33:11.085Z,1.10
2022-11-10T15:36:17.778Z,1.45
2022-11-10T15:39:12.951Z,1.30
2022-11-10T15:41:59.064Z,1.20
2022-11-10T15:44:46.823Z,1.20
2022-11-10T15:47:33.597Z,1.52
2022-11-10T15:50:19.629Z,1.20
2022-11-10T15:53:10.380Z,0.97
2022-11-10T15:55:57.007Z,1.40
2022-11-10T15:58:47.426Z,1.60
2022-11-10T16:01:33.708Z,1.52
2022-11-10T16:04:20.247Z,1.52
2022-11-10T16:07:06.199Z,1.30
2022-11-10T16:09:52.553Z,0.95
2022-11-10T16:12:38.727Z,1.40
2022-11-10T16:15:25.373Z,1.25
2022-11-10T16:18:16.976Z,1.25
2022-11-10T16:21:02.923Z,1.67
2022-11-10T16:23:49.491Z,1.30
2022-11-10T16:26:35.651Z,1.30
2022-11-10T16:29:21.868Z,1.05
2022-11-10T16:32:11.471Z,0.68
2022-11-10T16:34:57.740Z,1.10
2022-11-10T16:37:43.702Z,2.15
2022-11-10T16:40:29.812Z,1.70
2022-11-10T16:43:17.507Z,1.95
2022-11-10T16:46:07.573Z,2.25
2022-11-10T16:48:57.551Z,1.33
2022-11-10T16:51:48.835Z,0.82
2022-11-10T16:54:35.490Z,0.90
2022-11-10T16:57:21.620Z,1.13
2022-11-10T17:00:09.284Z,1.20
2022-11-10T17:03:03.359Z,1.03
2022-11-10T17:05:49.877Z,1.25
2022-11-10T17:08:36.250Z,0.60
2022-11-10T17:11:22.452Z,0.80
2022-11-10T17:14:11.551Z,1.17
2022-11-10T17:16:57.568Z,1.10
2022-11-10T17:19:45.075Z,1.40
2022-11-10T17:22:34.745Z,0.80
2022-11-10T17:25:28.583Z,1.20
2022-11-10T17:28:16.332Z,1.13
2022-11-10T17:31:03.387Z,1.80
2022-11-10T17:33:49.460Z,1.10
2022-11-10T17:36:35.899Z,0.98
2022-11-10T17:39:23.062Z,1.33
2022-11-10T17:42:15.070Z,1.40
2022-11-10T17:45:01.313Z,1.40
2022-11-10T17:47:49.110Z,1.40
2022-11-10T17:50:36.792Z,1.02
2022-11-10T17:53:25.798Z,1.52
2022-11-10T17:56:12.456Z,1.83
2022-11-10T17:58:58.848Z,1.10
2022-11-10T18:01:45.051Z,1.50
2022-11-10T18:04:31.802Z,1.90
2022-11-10T18:07:18.000Z,1.50
2022-11-10T18:10:04.808Z,1.17
2022-11-10T18:12:50.895Z,1.67
2022-11-10T18:15:37.742Z,1.75
2022-11-10T18:18:23.630Z,1.88
2022-11-10T18:21:10.705Z,1.65
2022-11-10T18:23:56.804Z,1.58
2022-11-10T18:26:43.177Z,1.40
2022-11-10T18:29:28.983Z,1.73
2022-11-10T18:32:15.479Z,1.85
2022-11-10T18:35:03.061Z,1.83
2022-11-10T18:37:49.218Z,1.70
2022-11-10T18:40:35.236Z,1.57
2022-11-10T18:43:21.762Z,1.95
2022-11-10T18:46:07.965Z,1.45
2022-11-10T18:48:54.359Z,1.80
2022-11-10T18:51:40.437Z,2.15
2022-11-10T18:54:27.256Z,1.40
2022-11-10T18:57:16.473Z,1.92
2022-11-10T19:00:07.041Z,1.70
2022-11-10T19:02:53.740Z,1.30
2022-11-10T19:05:39.868Z,2.05
2022-11-10T19:08:28.250Z,1.70
2022-11-10T19:11:16.375Z,1.73
2022-11-10T19:14:02.669Z,1.60
2022-11-10T19:16:49.112Z,1.70
2022-11-10T19:19:35.258Z,2.13
2022-11-10T19:22:22.227Z,1.60
2022-11-10T19:25:09.070Z,1.80
2022-11-10T19:27:57.261Z,1.40
2022-11-10T19:30:43.339Z,1.48
2022-11-10T19:33:31.245Z,1.50
2022-11-10T19:36:20.579Z,1.07
2022-11-10T19:39:07.635Z,1.35
2022-11-10T19:41:54.074Z,1.25
2022-11-10T19:44:40.354Z,1.55
2022-11-10T19:47:26.362Z,1.23
2022-11-10T19:50:12.689Z,1.70
2022-11-10T19:52:58.943Z,1.30
2022-11-10T19:55:44.959Z,1.42
2022-11-10T19:58:31.504Z,1.23
2022-11-10T20:01:19.930Z,0.93
2022-11-10T20:07:34.938Z,1.55
2022-11-10T20:10:21.222Z,1.13
2022-11-10T20:13:09.138Z,1.10
2022-11-10T20:15:55.452Z,1.50
2022-11-10T20:18:41.902Z,1.87
2022-11-10T20:21:27.942Z,1.00
2022-11-10T20:24:14.036Z,1.83
2022-11-10T20:27:00.456Z,1.33
2022-11-10T20:29:46.631Z,1.50
2022-11-10T20:32:33.019Z,1.93
2022-11-10T20:35:19.200Z,1.10
2022-11-10T20:38:06.422Z,1.92
2022-11-10T20:41:05.151Z,2.10
2022-11-10T20:43:51.990Z,1.35
2022-11-10T20:46:53.964Z,1.60
2022-11-10T20:49:40.918Z,1.40
2022-11-10T20:52:27.263Z,1.50
2022-11-10T20:55:18.278Z,1.95
2022-11-10T20:58:04.531Z,1.48
2022-11-10T21:00:50.331Z,1.40
2022-11-10T21:03:36.298Z,1.70
2022-11-10T21:06:22.379Z,1.80
2022-11-10T21:09:08.622Z,2.38
2022-11-10T21:12:27.293Z,1.73
2022-11-10T21:15:13.245Z,2.30
2022-11-10T21:17:59.686Z,2.08
2022-11-10T21:20:46.571Z,1.75
2022-11-10T21:23:32.879Z,1.45
2022-11-10T21:26:18.927Z,1.80
2022-11-10T21:29:06.425Z,1.50
2022-11-10T21:31:52.673Z,1.65
2022-11-10T21:34:39.031Z,1.65
2022-11-10T21:37:25.886Z,1.70
2022-11-10T21:40:12.891Z,1.45
2022-11-10T21:42:59.864Z,1.40
2022-11-10T21:45:45.922Z,1.77
2022-11-10T21:48:31.708Z,1.38
2022-11-10T21:51:19.840Z,1.23
2022-11-10T21:54:05.697Z,1.40
2022-11-10T21:56:51.951Z,1.20
2022-11-10T21:59:37.727Z,1.90
2022-11-10T22:02:23.640Z,1.48
2022-11-10T22:05:09.566Z,1.10
2022-11-10T22:07:55.918Z,1.48
2022-11-10T22:11:01.143Z,1.40
2022-11-10T22:14:06.014Z,1.77
2022-11-10T22:17:10.809Z,1.33
2022-11-10T22:19:57.134Z,1.60
2022-11-10T22:22:44.285Z,1.40
2022-11-10T22:25:30.491Z,1.67
2022-11-10T22:28:16.351Z,1.50
2022-11-10T22:31:04.008Z,2.58
2022-11-10T22:33:49.980Z,2.22
2022-11-10T22:36:36.506Z,2.15
2022-11-10T22:39:22.722Z,1.30
2022-11-10T22:42:30.572Z,1.30
2022-11-10T22:45:16.543Z,1.50
2022-11-10T22:48:21.310Z,1.50
2022-11-10T22:51:07.101Z,1.25
2022-11-10T22:53:53.524Z,1.37
2022-11-10T22:56:40.201Z,1.00
2022-11-10T22:59:26.499Z,1.63
2022-11-10T23:02:12.306Z,1.20
2022-11-10T23:04:58.457Z,1.27
2022-11-10T23:07:44.210Z,1.50
2022-11-10T23:10:30.617Z,1.13
2022-11-10T23:13:16.842Z,1.02
2022-11-10T23:16:08.712Z,1.30
2022-11-10T23:18:56.714Z,1.52
2022-11-10T23:21:42.976Z,1.40
2022-11-10T23:24:28.769Z,1.30
2022-11-10T23:27:15.394Z,1.27
2022-11-10T23:30:01.544Z,1.17
2022-11-10T23:32:47.543Z,1.15
2022-11-10T23:35:33.429Z,1.40
2022-11-10T23:38:19.725Z,1.25
2022-11-10T23:41:07.546Z,1.83
2022-11-10T23:43:54.156Z,1.83
2022-11-10T23:46:40.172Z,0.93
2022-11-10T23:49:26.516Z,1.27
2022-11-10T23:52:12.713Z,1.00
2022-11-10T23:54:59.057Z,1.10
2022-11-10T23:57:47.759Z,1.45
